sensor_id;sensor_type;location;lat;lon;timestamp;pressure;altitude;pressure_sealevel;temperature;humidity
9421;BME280;4749;51.398;5.466;2023-03-26T00:01:27;100558.72;;;9.35;100.00
9421;BME280;4749;51.398;5.466;2023-03-26T00:03:55;100568.31;;;9.29;100.00
9421;BME280;4749;51.398;5.466;2023-03-26T00:06:34;100563.91;;;9.24;100.00
9421;BME280;4749;51.398;5.466;2023-03-26T00:09:06;100569.16;;;9.21;100.00
9421;BME280;4749;51.398;5.466;2023-03-26T00:11:34;100560.41;;;9.22;100.00
9421;BME280;4749;51.398;5.466;2023-03-26T00:14:01;100558.66;;;9.22;100.00
9421;BME280;4749;51.398;5.466;2023-03-26T00:16:31;100560.41;;;9.20;100.00
9421;BME280;4749;51.398;5.466;2023-03-26T00:18:59;100559.53;;;9.17;100.00
9421;BME280;4749;51.398;5.466;2023-03-26T00:21:29;100553.38;;;9.13;100.00
9421;BME280;4749;51.398;5.466;2023-03-26T00:24:01;100549.00;;;9.09;100.00
9421;BME280;4749;51.398;5.466;2023-03-26T00:26:35;100548.09;;;9.06;100.00
9421;BME280;4749;51.398;5.466;2023-03-26T00:29:05;100540.19;;;8.99;100.00
9421;BME280;4749;51.398;5.466;2023-03-26T00:31:34;100544.56;;;8.99;100.00
9421;BME280;4749;51.398;5.466;2023-03-26T00:34:03;100542.81;;;8.93;100.00
9421;BME280;4749;51.398;5.466;2023-03-26T00:36:32;100542.78;;;8.90;100.00
9421;BME280;4749;51.398;5.466;2023-03-26T00:39:03;100540.16;;;8.90;100.00
9421;BME280;4749;51.398;5.466;2023-03-26T00:41:32;100531.41;;;8.85;100.00
9421;BME280;4749;51.398;5.466;2023-03-26T00:44:03;100532.25;;;8.83;100.00
9421;BME280;4749;51.398;5.466;2023-03-26T00:46:30;100531.38;;;8.81;100.00
9421;BME280;4749;51.398;5.466;2023-03-26T00:48:59;100526.13;;;8.79;100.00
9421;BME280;4749;51.398;5.466;2023-03-26T00:51:28;100524.41;;;8.83;100.00
9421;BME280;4749;51.398;5.466;2023-03-26T00:53:56;100527.06;;;8.86;100.00
9421;BME280;4749;51.398;5.466;2023-03-26T00:56:24;100526.19;;;8.88;100.00
9421;BME280;4749;51.398;5.466;2023-03-26T00:58:51;100522.69;;;8.83;100.00
9421;BME280;4749;51.398;5.466;2023-03-26T01:01:23;100516.53;;;8.78;100.00
9421;BME280;4749;51.398;5.466;2023-03-26T01:03:57;100510.38;;;8.73;100.00
9421;BME280;4749;51.398;5.466;2023-03-26T01:06:34;100502.50;;;8.71;100.00
9421;BME280;4749;51.398;5.466;2023-03-26T01:09:18;100496.41;;;8.72;100.00
9421;BME280;4749;51.398;5.466;2023-03-26T01:11:48;100491.16;;;8.74;100.00
9421;BME280;4749;51.398;5.466;2023-03-26T01:14:20;100491.16;;;8.74;100.00
9421;BME280;4749;51.398;5.466;2023-03-26T01:16:55;100483.28;;;8.71;100.00
9421;BME280;4749;51.398;5.466;2023-03-26T01:22:24;100473.66;;;8.65;100.00
9421;BME280;4749;51.398;5.466;2023-03-26T01:24:52;100461.41;;;8.61;100.00
9421;BME280;4749;51.398;5.466;2023-03-26T01:27:49;100459.66;;;8.62;100.00
9421;BME280;4749;51.398;5.466;2023-03-26T01:31:32;100452.66;;;8.55;100.00
9421;BME280;4749;51.398;5.466;2023-03-26T01:33:56;100466.56;;;8.49;100.00
9421;BME280;4749;51.398;5.466;2023-03-26T01:36:51;100451.72;;;8.46;100.00
9421;BME280;4749;51.398;5.466;2023-03-26T01:39:42;100454.31;;;8.40;100.00
9421;BME280;4749;51.398;5.466;2023-03-26T01:42:43;100449.06;;;8.37;100.00
9421;BME280;4749;51.398;5.466;2023-03-26T01:45:22;100449.94;;;8.35;100.00
9421;BME280;4749;51.398;5.466;2023-03-26T01:47:52;100449.88;;;8.30;100.00
9421;BME280;4749;51.398;5.466;2023-03-26T01:50:20;100444.63;;;8.32;100.00
9421;BME280;4749;51.398;5.466;2023-03-26T01:52:48;100439.38;;;8.30;100.00
9421;BME280;4749;51.398;5.466;2023-03-26T01:55:15;100434.16;;;8.29;100.00
9421;BME280;4749;51.398;5.466;2023-03-26T01:58:18;100437.63;;;8.28;100.00
9421;BME280;4749;51.398;5.466;2023-03-26T02:03:51;100425.41;;;8.31;100.00
9421;BME280;4749;51.398;5.466;2023-03-26T02:06:27;100414.97;;;8.33;100.00
9421;BME280;4749;51.398;5.466;2023-03-26T02:09:07;100411.56;;;8.41;100.00
9421;BME280;4749;51.398;5.466;2023-03-26T02:11:39;100407.16;;;8.37;100.00
9421;BME280;4749;51.398;5.466;2023-03-26T02:14:07;100409.78;;;8.37;100.00
9421;BME280;4749;51.398;5.466;2023-03-26T02:16:35;100397.56;;;8.39;100.00
9421;BME280;4749;51.398;5.466;2023-03-26T02:19:03;100391.47;;;8.42;100.00
9421;BME280;4749;51.398;5.466;2023-03-26T02:21:30;100391.47;;;8.43;100.00
9421;BME280;4749;51.398;5.466;2023-03-26T02:24:00;100386.25;;;8.43;100.00
9421;BME280;4749;51.398;5.466;2023-03-26T02:26:33;100393.22;;;8.44;100.00
9421;BME280;4749;51.398;5.466;2023-03-26T02:29:01;100388.84;;;8.45;100.00
9421;BME280;4749;51.398;5.466;2023-03-26T02:31:28;100387.97;;;8.44;100.00
9421;BME280;4749;51.398;5.466;2023-03-26T02:33:56;100387.09;;;8.47;100.00
9421;BME280;4749;51.398;5.466;2023-03-26T02:36:24;100387.97;;;8.48;100.00
9421;BME280;4749;51.398;5.466;2023-03-26T02:38:54;100382.78;;;8.51;100.00
9421;BME280;4749;51.398;5.466;2023-03-26T02:41:24;100369.69;;;8.51;100.00
9421;BME280;4749;51.398;5.466;2023-03-26T02:43:51;100371.38;;;8.49;100.00
9421;BME280;4749;51.398;5.466;2023-03-26T02:46:18;100362.69;;;8.50;100.00
9421;BME280;4749;51.398;5.466;2023-03-26T02:48:45;100359.19;;;8.51;100.00
9421;BME280;4749;51.398;5.466;2023-03-26T02:51:13;100358.31;;;8.52;100.00
9421;BME280;4749;51.398;5.466;2023-03-26T02:53:40;100346.97;;;8.51;100.00
9421;BME280;4749;51.398;5.466;2023-03-26T02:56:08;100347.84;;;8.55;100.00
9421;BME280;4749;51.398;5.466;2023-03-26T02:58:35;100347.88;;;8.58;100.00
9421;BME280;4749;51.398;5.466;2023-03-26T03:01:02;100340.88;;;8.63;100.00
9421;BME280;4749;51.398;5.466;2023-03-26T03:03:31;100330.41;;;8.61;100.00
9421;BME280;4749;51.398;5.466;2023-03-26T03:05:58;100334.75;;;8.65;100.00
9421;BME280;4749;51.398;5.466;2023-03-26T03:08:26;100333.00;;;8.66;100.00
9421;BME280;4749;51.398;5.466;2023-03-26T03:11:07;100323.44;;;8.68;100.00
9421;BME280;4749;51.398;5.466;2023-03-26T03:13:35;100317.31;;;8.69;100.00
9421;BME280;4749;51.398;5.466;2023-03-26T03:16:02;100315.56;;;8.71;100.00
9421;BME280;4749;51.398;5.466;2023-03-26T03:18:29;100300.72;;;8.71;100.00
9421;BME280;4749;51.398;5.466;2023-03-26T03:20:56;100302.47;;;8.74;100.00
9421;BME280;4749;51.398;5.466;2023-03-26T03:23:23;100296.38;;;8.75;100.00
9421;BME280;4749;51.398;5.466;2023-03-26T03:25:50;100300.72;;;8.78;100.00
9421;BME280;4749;51.398;5.466;2023-03-26T03:28:18;100296.34;;;8.81;100.00
9421;BME280;4749;51.398;5.466;2023-03-26T03:30:45;100296.34;;;8.83;100.00
9421;BME280;4749;51.398;5.466;2023-03-26T03:33:13;100290.25;;;8.84;100.00
9421;BME280;4749;51.398;5.466;2023-03-26T03:35:40;100288.50;;;8.89;100.00
9421;BME280;4749;51.398;5.466;2023-03-26T03:38:09;100290.28;;;8.91;100.00
9421;BME280;4749;51.398;5.466;2023-03-26T03:40:37;100292.00;;;8.91;100.00
9421;BME280;4749;51.398;5.466;2023-03-26T03:43:04;100281.53;;;8.94;100.00
9421;BME280;4749;51.398;5.466;2023-03-26T03:45:31;100285.03;;;8.94;100.00
9421;BME280;4749;51.398;5.466;2023-03-26T03:47:58;100273.66;;;8.95;100.00
9421;BME280;4749;51.398;5.466;2023-03-26T03:50:25;100273.66;;;8.97;100.00
9421;BME280;4749;51.398;5.466;2023-03-26T03:52:52;100271.91;;;8.97;100.00
9421;BME280;4749;51.398;5.466;2023-03-26T03:55:20;100266.66;;;8.97;100.00
9421;BME280;4749;51.398;5.466;2023-03-26T03:57:49;100259.66;;;8.96;100.00
9421;BME280;4749;51.398;5.466;2023-03-26T04:00:19;100258.78;;;8.97;100.00
9421;BME280;4749;51.398;5.466;2023-03-26T04:02:46;100251.78;;;8.99;100.00
9421;BME280;4749;51.398;5.466;2023-03-26T04:05:13;100238.72;;;9.01;100.00
9421;BME280;4749;51.398;5.466;2023-03-26T04:07:40;100242.19;;;9.03;100.00
9421;BME280;4749;51.398;5.466;2023-03-26T04:10:08;100242.19;;;9.08;100.00
9421;BME280;4749;51.398;5.466;2023-03-26T04:12:36;100243.06;;;9.08;100.00
9421;BME280;4749;51.398;5.466;2023-03-26T04:15:03;100235.19;;;9.10;100.00
9421;BME280;4749;51.398;5.466;2023-03-26T04:17:31;100211.59;;;9.07;100.00
9421;BME280;4749;51.398;5.466;2023-03-26T04:19:58;100213.34;;;9.06;100.00
9421;BME280;4749;51.398;5.466;2023-03-26T04:22:36;100216.84;;;9.03;100.00
9421;BME280;4749;51.398;5.466;2023-03-26T04:25:04;100199.38;;;9.02;100.00
9421;BME280;4749;51.398;5.466;2023-03-26T04:27:31;100205.50;;;9.01;100.00
9421;BME280;4749;51.398;5.466;2023-03-26T04:30:05;100197.63;;;9.03;100.00
9421;BME280;4749;51.398;5.466;2023-03-26T04:32:32;100189.75;;;9.05;100.00
9421;BME280;4749;51.398;5.466;2023-03-26T04:35:04;100181.88;;;9.05;100.00
9421;BME280;4749;51.398;5.466;2023-03-26T04:37:38;100178.41;;;9.02;100.00
9421;BME280;4749;51.398;5.466;2023-03-26T04:40:15;100179.28;;;9.00;100.00
9421;BME280;4749;51.398;5.466;2023-03-26T04:42:43;100175.78;;;8.98;100.00
9421;BME280;4749;51.398;5.466;2023-03-26T04:45:15;100165.31;;;8.93;100.00
9421;BME280;4749;51.398;5.466;2023-03-26T04:47:43;100167.03;;;8.90;100.00
9421;BME280;4749;51.398;5.466;2023-03-26T04:50:12;100155.69;;;8.88;100.00
9421;BME280;4749;51.398;5.466;2023-03-26T04:52:40;100150.47;;;8.86;100.00
9421;BME280;4749;51.398;5.466;2023-03-26T04:55:30;100146.09;;;8.84;100.00
9421;BME280;4749;51.398;5.466;2023-03-26T04:57:59;100144.31;;;8.83;100.00
9421;BME280;4749;51.398;5.466;2023-03-26T05:00:29;100139.97;;;8.82;100.00
9421;BME280;4749;51.398;5.466;2023-03-26T05:02:56;100141.72;;;8.81;100.00
9421;BME280;4749;51.398;5.466;2023-03-26T05:05:26;100143.47;;;8.84;100.00
9421;BME280;4749;51.398;5.466;2023-03-26T05:07:55;100133.84;;;8.83;100.00
9421;BME280;4749;51.398;5.466;2023-03-26T05:10:23;100132.13;;;8.85;100.00
9421;BME280;4749;51.398;5.466;2023-03-26T05:12:50;100137.34;;;8.86;100.00
9421;BME280;4749;51.398;5.466;2023-03-26T05:15:17;100129.50;;;8.86;100.00
9421;BME280;4749;51.398;5.466;2023-03-26T05:17:44;100127.75;;;8.87;100.00
9421;BME280;4749;51.398;5.466;2023-03-26T05:20:22;100125.13;;;8.87;100.00
9421;BME280;4749;51.398;5.466;2023-03-26T05:22:50;100123.38;;;8.87;100.00
9421;BME280;4749;51.398;5.466;2023-03-26T05:25:19;100118.97;;;8.89;100.00
9421;BME280;4749;51.398;5.466;2023-03-26T05:27:46;100116.38;;;8.94;100.00
9421;BME280;4749;51.398;5.466;2023-03-26T05:30:20;100104.13;;;8.93;100.00
9421;BME280;4749;51.398;5.466;2023-03-26T05:32:48;100108.50;;;8.94;100.00
9421;BME280;4749;51.398;5.466;2023-03-26T05:35:16;100097.13;;;8.96;100.00
9421;BME280;4749;51.398;5.466;2023-03-26T05:37:45;100092.75;;;8.95;100.00
9421;BME280;4749;51.398;5.466;2023-03-26T05:40:13;100091.03;;;8.94;100.00
9421;BME280;4749;51.398;5.466;2023-03-26T05:42:44;100084.03;;;8.95;100.00
9421;BME280;4749;51.398;5.466;2023-03-26T05:45:13;100091.88;;;8.96;100.00
9421;BME280;4749;51.398;5.466;2023-03-26T05:47:41;100085.78;;;8.93;100.00
9421;BME280;4749;51.398;5.466;2023-03-26T05:50:09;100076.16;;;8.95;100.00
9421;BME280;4749;51.398;5.466;2023-03-26T05:52:37;100069.16;;;8.97;100.00
9421;BME280;4749;51.398;5.466;2023-03-26T05:55:04;100070.91;;;8.95;100.00
9421;BME280;4749;51.398;5.466;2023-03-26T05:57:32;100063.06;;;8.95;100.00
9421;BME280;4749;51.398;5.466;2023-03-26T06:00:03;100059.56;;;8.94;100.00
9421;BME280;4749;51.398;5.466;2023-03-26T06:02:30;100060.44;;;8.96;100.00
9421;BME280;4749;51.398;5.466;2023-03-26T06:04:57;100056.94;;;8.96;100.00
9421;BME280;4749;51.398;5.466;2023-03-26T06:07:24;100056.94;;;8.97;100.00
9421;BME280;4749;51.398;5.466;2023-03-26T06:09:53;100046.44;;;8.97;100.00
9421;BME280;4749;51.398;5.466;2023-03-26T06:12:20;100051.69;;;8.97;100.00
9421;BME280;4749;51.398;5.466;2023-03-26T06:14:47;100042.06;;;8.98;100.00
9421;BME280;4749;51.398;5.466;2023-03-26T06:17:15;100042.97;;;9.00;100.00
9421;BME280;4749;51.398;5.466;2023-03-26T06:19:42;100042.06;;;8.99;100.00
9421;BME280;4749;51.398;5.466;2023-03-26T06:22:09;100048.19;;;9.00;100.00
9421;BME280;4749;51.398;5.466;2023-03-26T06:24:36;100048.19;;;9.01;100.00
9421;BME280;4749;51.398;5.466;2023-03-26T06:27:03;100051.66;;;9.03;100.00
9421;BME280;4749;51.398;5.466;2023-03-26T06:29:31;100047.31;;;9.02;100.00
9421;BME280;4749;51.398;5.466;2023-03-26T06:31:58;100042.94;;;8.98;100.00
9421;BME280;4749;51.398;5.466;2023-03-26T06:34:44;100049.94;;;8.98;100.00
9421;BME280;4749;51.398;5.466;2023-03-26T06:37:12;100045.59;;;8.94;100.00
9421;BME280;4749;51.398;5.466;2023-03-26T06:39:39;100047.34;;;8.92;100.00
9421;BME280;4749;51.398;5.466;2023-03-26T06:42:06;100040.34;;;8.89;100.00
9421;BME280;4749;51.398;5.466;2023-03-26T06:44:34;100045.59;;;8.89;100.00
9421;BME280;4749;51.398;5.466;2023-03-26T06:47:01;100048.22;;;8.86;100.00
9421;BME280;4749;51.398;5.466;2023-03-26T06:49:28;100043.84;;;8.87;100.00
9421;BME280;4749;51.398;5.466;2023-03-26T06:51:56;100049.97;;;8.87;100.00
9421;BME280;4749;51.398;5.466;2023-03-26T06:54:23;100039.50;;;8.86;100.00
9421;BME280;4749;51.398;5.466;2023-03-26T06:56:50;100039.50;;;8.86;100.00
9421;BME280;4749;51.398;5.466;2023-03-26T06:59:18;100031.63;;;8.87;100.00
9421;BME280;4749;51.398;5.466;2023-03-26T07:01:45;100038.59;;;8.90;100.00
9421;BME280;4749;51.398;5.466;2023-03-26T07:04:13;100030.72;;;8.90;100.00
9421;BME280;4749;51.398;5.466;2023-03-26T07:06:40;100030.72;;;8.94;100.00
9421;BME280;4749;51.398;5.466;2023-03-26T07:09:07;100028.09;;;8.97;100.00
9421;BME280;4749;51.398;5.466;2023-03-26T07:11:34;100022.84;;;9.00;100.00
9421;BME280;4749;51.398;5.466;2023-03-26T07:14:01;100021.97;;;9.03;100.00
9421;BME280;4749;51.398;5.466;2023-03-26T07:16:29;100014.94;;;9.05;100.00
9421;BME280;4749;51.398;5.466;2023-03-26T07:18:56;100014.94;;;9.11;100.00
9421;BME280;4749;51.398;5.466;2023-03-26T07:21:24;100014.91;;;9.17;100.00
9421;BME280;4749;51.398;5.466;2023-03-26T07:23:51;100009.63;;;9.20;100.00
9421;BME280;4749;51.398;5.466;2023-03-26T07:29:17;100009.59;;;9.28;100.00
9421;BME280;4749;51.398;5.466;2023-03-26T07:32:01;100008.69;;;9.32;100.00
9421;BME280;4749;51.398;5.466;2023-03-26T07:34:55;100006.09;;;9.34;100.00
9421;BME280;4749;51.398;5.466;2023-03-26T07:38:11;99999.94;;;9.36;100.00
9421;BME280;4749;51.398;5.466;2023-03-26T07:46:42;99994.59;;;9.53;100.00
9421;BME280;4749;51.398;5.466;2023-03-26T07:49:12;99991.94;;;9.59;100.00
9421;BME280;4749;51.398;5.466;2023-03-26T07:51:40;99991.00;;;9.65;100.00
9421;BME280;4749;51.398;5.466;2023-03-26T07:54:09;99988.34;;;9.69;100.00
9421;BME280;4749;51.398;5.466;2023-03-26T07:56:55;99986.56;;;9.73;100.00
9421;BME280;4749;51.398;5.466;2023-03-26T07:59:37;99983.06;;;9.77;100.00
9421;BME280;4749;51.398;5.466;2023-03-26T08:05:23;99978.63;;;9.80;100.00
9421;BME280;4749;51.398;5.466;2023-03-26T08:13:34;99971.59;;;9.87;100.00
9421;BME280;4749;51.398;5.466;2023-03-26T08:17:05;99966.28;;;9.95;100.00
9421;BME280;4749;51.398;5.466;2023-03-26T08:19:59;99967.09;;;10.00;100.00
9421;BME280;4749;51.398;5.466;2023-03-26T08:22:46;99966.19;;;10.04;100.00
9421;BME280;4749;51.398;5.466;2023-03-26T08:25:39;99968.78;;;10.07;100.00
9421;BME280;4749;51.398;5.466;2023-03-26T08:31:33;99962.75;;;9.97;100.00
9421;BME280;4749;51.398;5.466;2023-03-26T08:34:01;99966.31;;;9.88;100.00
9421;BME280;4749;51.398;5.466;2023-03-26T08:36:29;99968.97;;;9.87;100.00
9421;BME280;4749;51.398;5.466;2023-03-26T08:38:56;99967.22;;;9.86;100.00
9421;BME280;4749;51.398;5.466;2023-03-26T09:00:29;99969.56;;;10.18;100.00
9421;BME280;4749;51.398;5.466;2023-03-26T09:06:17;99960.00;;;10.11;100.00
9421;BME280;4749;51.398;5.466;2023-03-26T09:39:52;99958.03;;;10.36;100.00
9421;BME280;4749;51.398;5.466;2023-03-26T09:42:36;99960.66;;;10.37;100.00
9421;BME280;4749;51.398;5.466;2023-03-26T09:54:44;99951.56;;;10.64;100.00
9421;BME280;4749;51.398;5.466;2023-03-26T10:00:47;99958.47;;;10.73;100.00
9421;BME280;4749;51.398;5.466;2023-03-26T10:03:44;99956.72;;;10.74;100.00
9421;BME280;4749;51.398;5.466;2023-03-26T10:09:19;99958.47;;;10.73;100.00
9421;BME280;4749;51.398;5.466;2023-03-26T10:12:13;99959.28;;;10.80;100.00
9421;BME280;4749;51.398;5.466;2023-03-26T10:15:30;99961.75;;;10.93;100.00
9421;BME280;4749;51.398;5.466;2023-03-26T10:24:15;99961.34;;;11.22;100.00
9421;BME280;4749;51.398;5.466;2023-03-26T10:30:24;99966.41;;;11.35;100.00
9421;BME280;4749;51.398;5.466;2023-03-26T10:56:58;99962.38;;;11.71;100.00
9421;BME280;4749;51.398;5.466;2023-03-26T10:59:26;99967.50;;;11.81;100.00
9421;BME280;4749;51.398;5.466;2023-03-26T11:02:03;99962.97;;;11.90;100.00
9421;BME280;4749;51.398;5.466;2023-03-26T11:07:40;99960.25;;;11.96;100.00
9421;BME280;4749;51.398;5.466;2023-03-26T11:13:10;99974.91;;;12.10;100.00
9421;BME280;4749;51.398;5.466;2023-03-26T11:15:55;99973.00;;;12.20;100.00
9421;BME280;4749;51.398;5.466;2023-03-26T11:21:32;99975.31;;;12.38;100.00
9421;BME280;4749;51.398;5.466;2023-03-26T11:27:15;99981.03;;;12.62;100.00
9421;BME280;4749;51.398;5.466;2023-03-26T11:32:46;99985.03;;;12.81;100.00
9421;BME280;4749;51.398;5.466;2023-03-26T11:35:19;99991.09;;;12.86;100.00
9421;BME280;4749;51.398;5.466;2023-03-26T11:38:30;99988.25;;;12.94;100.00
9421;BME280;4749;51.398;5.466;2023-03-26T11:41:19;99988.19;;;12.99;100.00
9421;BME280;4749;51.398;5.466;2023-03-26T11:44:03;99984.56;;;13.03;100.00
9421;BME280;4749;51.398;5.466;2023-03-26T11:46:37;100002.16;;;13.02;100.00
9421;BME280;4749;51.398;5.466;2023-03-26T11:49:09;99996.03;;;13.02;100.00
9421;BME280;4749;51.398;5.466;2023-03-26T11:51:39;99988.97;;;13.04;100.00
9421;BME280;4749;51.398;5.466;2023-03-26T11:54:11;99995.06;;;13.06;100.00
9421;BME280;4749;51.398;5.466;2023-03-26T11:56:51;99994.78;;;13.19;100.00
9421;BME280;4749;51.398;5.466;2023-03-26T11:59:57;100006.00;;;13.31;100.00
9421;BME280;4749;51.398;5.466;2023-03-26T12:02:38;99991.78;;;13.38;100.00
9421;BME280;4749;51.398;5.466;2023-03-26T12:05:22;99997.78;;;13.44;100.00
9421;BME280;4749;51.398;5.466;2023-03-26T12:07:58;99995.03;;;13.49;100.00
9421;BME280;4749;51.398;5.466;2023-03-26T12:10:50;99997.72;;;13.47;100.00
9421;BME280;4749;51.398;5.466;2023-03-26T12:16:14;99998.38;;;13.15;100.00
9421;BME280;4749;51.398;5.466;2023-03-26T12:18:43;100000.47;;;13.00;100.00
9421;BME280;4749;51.398;5.466;2023-03-26T12:21:15;100010.34;;;12.90;100.00
9421;BME280;4749;51.398;5.466;2023-03-26T12:23:59;100010.31;;;12.91;100.00
9421;BME280;4749;51.398;5.466;2023-03-26T12:26:40;100012.25;;;12.82;100.00
9421;BME280;4749;51.398;5.466;2023-03-26T12:29:14;100013.47;;;12.65;100.00
9421;BME280;4749;51.398;5.466;2023-03-26T12:32:07;100009.84;;;12.71;100.00
9421;BME280;4749;51.398;5.466;2023-03-26T12:34:39;100013.25;;;12.76;100.00
9421;BME280;4749;51.398;5.466;2023-03-26T12:37:37;100013.19;;;12.79;100.00
9421;BME280;4749;51.398;5.466;2023-03-26T12:40:31;100017.03;;;12.63;100.00
9421;BME280;4749;51.398;5.466;2023-03-26T12:43:19;100024.44;;;12.41;100.00
9421;BME280;4749;51.398;5.466;2023-03-26T12:46:32;100020.56;;;12.13;100.00
9421;BME280;4749;51.398;5.466;2023-03-26T12:49:23;100018.22;;;11.94;100.00
9421;BME280;4749;51.398;5.466;2023-03-26T12:51:53;100021.91;;;11.82;100.00
9421;BME280;4749;51.398;5.466;2023-03-26T12:54:57;100029.00;;;11.76;100.00
9421;BME280;4749;51.398;5.466;2023-03-26T12:57:35;100031.75;;;11.70;100.00
9421;BME280;4749;51.398;5.466;2023-03-26T13:08:44;100036.69;;;11.26;100.00
9421;BME280;4749;51.398;5.466;2023-03-26T13:31:21;100046.97;;;13.05;100.00
9421;BME280;4749;51.398;5.466;2023-03-26T13:37:51;100053.28;;;13.41;100.00
9421;BME280;4749;51.398;5.466;2023-03-26T13:43:32;100059.69;;;13.70;100.00
9421;BME280;4749;51.398;5.466;2023-03-26T13:49:13;100061.00;;;13.91;100.00
9421;BME280;4749;51.398;5.466;2023-03-26T13:51:52;100061.66;;;14.00;100.00
9421;BME280;4749;51.398;5.466;2023-03-26T13:55:27;100073.66;;;14.14;100.00
9421;BME280;4749;51.398;5.466;2023-03-26T13:57:43;100073.63;;;14.15;100.00
9421;BME280;4749;51.398;5.466;2023-03-26T14:00:20;100075.50;;;14.10;100.00
9421;BME280;4749;51.398;5.466;2023-03-26T14:02:59;100076.63;;;14.00;100.00
9421;BME280;4749;51.398;5.466;2023-03-26T14:05:42;100080.53;;;13.84;100.00
9421;BME280;4749;51.398;5.466;2023-03-26T14:08:28;100077.75;;;13.49;100.00
9421;BME280;4749;51.398;5.466;2023-03-26T14:11:18;100073.25;;;13.10;100.00
9421;BME280;4749;51.398;5.466;2023-03-26T14:14:07;100089.59;;;12.84;100.00
9421;BME280;4749;51.398;5.466;2023-03-26T14:16:48;100095.28;;;12.61;100.00
9421;BME280;4749;51.398;5.466;2023-03-26T14:20:09;100097.34;;;12.42;100.00
9421;BME280;4749;51.398;5.466;2023-03-26T14:40:21;100132.44;;;11.89;100.00
9421;BME280;4749;51.398;5.466;2023-03-26T14:52:07;100152.84;;;10.91;100.00
9421;BME280;4749;51.398;5.466;2023-03-26T14:54:42;100146.88;;;10.74;100.00
9421;BME280;4749;51.398;5.466;2023-03-26T14:57:53;100156.59;;;10.64;100.00
9421;BME280;4749;51.398;5.466;2023-03-26T15:33:55;100236.25;;;10.79;100.00
9421;BME280;4749;51.398;5.466;2023-03-26T15:47:53;100261.88;;;10.41;100.00
9421;BME280;4749;51.398;5.466;2023-03-26T16:11:58;100310.19;;;10.05;100.00
9421;BME280;4749;51.398;5.466;2023-03-26T16:17:12;100310.19;;;10.07;100.00
9421;BME280;4749;51.398;5.466;2023-03-26T16:20:30;100311.94;;;10.06;100.00
9421;BME280;4749;51.398;5.466;2023-03-26T16:23:01;100318.97;;;10.09;100.00
9421;BME280;4749;51.398;5.466;2023-03-26T16:36:41;100339.91;;;10.30;100.00
9421;BME280;4749;51.398;5.466;2023-03-26T16:39:45;100348.66;;;10.29;100.00
9421;BME280;4749;51.398;5.466;2023-03-26T16:42:30;100349.56;;;10.28;100.00
9421;BME280;4749;51.398;5.466;2023-03-26T16:45:30;100364.44;;;10.22;100.00
9421;BME280;4749;51.398;5.466;2023-03-26T16:51:22;100373.22;;;10.10;100.00
9421;BME280;4749;51.398;5.466;2023-03-26T17:03:10;100409.13;;;9.99;100.00
9421;BME280;4749;51.398;5.466;2023-03-26T17:11:32;100443.28;;;9.82;100.00
9421;BME280;4749;51.398;5.466;2023-03-26T17:20:49;100474.75;;;9.50;100.00
9421;BME280;4749;51.398;5.466;2023-03-26T17:26:31;100488.75;;;9.35;100.00
9421;BME280;4749;51.398;5.466;2023-03-26T17:32:05;100488.75;;;9.27;100.00
9421;BME280;4749;51.398;5.466;2023-03-26T17:34:39;100497.47;;;9.20;100.00
9421;BME280;4749;51.398;5.466;2023-03-26T17:45:01;100521.91;;;9.09;100.00
9421;BME280;4749;51.398;5.466;2023-03-26T17:47:56;100526.28;;;9.10;100.00
9421;BME280;4749;51.398;5.466;2023-03-26T17:50:37;100534.13;;;9.05;100.00
9421;BME280;4749;51.398;5.466;2023-03-26T17:53:29;100547.19;;;8.97;100.00
9421;BME280;4749;51.398;5.466;2023-03-26T17:56:02;100548.06;;;8.92;100.00
9421;BME280;4749;51.398;5.466;2023-03-26T17:58:47;100554.16;;;8.88;100.00
9421;BME280;4749;51.398;5.466;2023-03-26T18:01:36;100569.88;;;8.83;100.00
9421;BME280;4749;51.398;5.466;2023-03-26T18:04:14;100576.81;;;8.77;100.00
9421;BME280;4749;51.398;5.466;2023-03-26T18:16:19;100602.00;;;8.55;100.00
9421;BME280;4749;51.398;5.466;2023-03-26T18:19:03;100616.81;;;8.50;100.00
9421;BME280;4749;51.398;5.466;2023-03-26T18:21:45;100607.16;;;8.42;100.00
9421;BME280;4749;51.398;5.466;2023-03-26T18:24:36;100614.97;;;8.39;100.00
9421;BME280;4749;51.398;5.466;2023-03-26T18:27:17;100623.72;;;8.40;100.00
9421;BME280;4749;51.398;5.466;2023-03-26T18:32:31;100636.81;;;8.40;100.00
9421;BME280;4749;51.398;5.466;2023-03-26T18:35:20;100633.28;;;8.36;100.00
9421;BME280;4749;51.398;5.466;2023-03-26T18:37:51;100641.97;;;8.34;100.00
9421;BME280;4749;51.398;5.466;2023-03-26T18:40:23;100656.81;;;8.33;100.00
9421;BME280;4749;51.398;5.466;2023-03-26T18:42:56;100658.53;;;8.31;100.00
9421;BME280;4749;51.398;5.466;2023-03-26T18:45:31;100668.13;;;8.29;100.00
9421;BME280;4749;51.398;5.466;2023-03-26T18:48:05;100675.06;;;8.24;100.00
9421;BME280;4749;51.398;5.466;2023-03-26T18:50:40;100680.25;;;8.19;100.00
9421;BME280;4749;51.398;5.466;2023-03-26T18:53:18;100690.66;;;8.15;100.00
9421;BME280;4749;51.398;5.466;2023-03-26T18:55:48;100694.13;;;8.09;100.00
9421;BME280;4749;51.398;5.466;2023-03-26T18:58:33;100704.53;;;8.06;100.00
9421;BME280;4749;51.398;5.466;2023-03-26T19:01:03;100711.50;;;8.01;100.00
9421;BME280;4749;51.398;5.466;2023-03-26T19:03:40;100710.53;;;7.96;100.00
9421;BME280;4749;51.398;5.466;2023-03-26T19:06:12;100720.09;;;7.91;100.00
9421;BME280;4749;51.398;5.466;2023-03-26T19:08:44;100724.41;;;7.86;100.00
9421;BME280;4749;51.398;5.466;2023-03-26T19:11:15;100718.28;;;7.84;100.00
9421;BME280;4749;51.398;5.466;2023-03-26T19:13:47;100732.22;;;7.83;100.00
9421;BME280;4749;51.398;5.466;2023-03-26T19:16:25;100737.41;;;7.80;100.00
9421;BME280;4749;51.398;5.466;2023-03-26T19:18:58;100748.72;;;7.77;100.00
9421;BME280;4749;51.398;5.466;2023-03-26T19:21:27;100753.09;;;7.78;100.00
9421;BME280;4749;51.398;5.466;2023-03-26T19:23:54;100756.56;;;7.77;100.00
9421;BME280;4749;51.398;5.466;2023-03-26T19:26:22;100767.03;;;7.76;100.00
9421;BME280;4749;51.398;5.466;2023-03-26T19:28:54;100768.69;;;7.71;100.00
9421;BME280;4749;51.398;5.466;2023-03-26T19:31:36;100786.97;;;7.66;100.00
9421;BME280;4749;51.398;5.466;2023-03-26T19:37:02;100794.72;;;7.60;100.00
9421;BME280;4749;51.398;5.466;2023-03-26T19:39:44;100804.25;;;7.56;100.00